createdAt,value
2018-12-24T00:02:26.490Z,99636.02
2018-12-24T00:05:22.355Z,99639.28
2018-12-24T00:08:18.023Z,99636.27
2018-12-24T00:11:14.724Z,99637.27
2018-12-24T00:14:12.689Z,99641.35
2018-12-24T00:17:08.683Z,99641.58
2018-12-24T00:20:04.601Z,99642.33
2018-12-24T00:23:01.696Z,99656.77
2018-12-24T00:25:59.630Z,99657.15
2018-12-24T00:28:55.691Z,99660.61
2018-12-24T00:31:54.306Z,99673.59
2018-12-24T00:34:51.779Z,99673.67
2018-12-24T00:37:48.280Z,99679.64
2018-12-24T00:40:45.103Z,99674.09
2018-12-24T00:43:40.743Z,99668.84
2018-12-24T00:46:36.184Z,99660.75
2018-12-24T00:49:32.735Z,99663.92
2018-12-24T00:52:28.828Z,99662.79
2018-12-24T00:55:25.505Z,99663.36
2018-12-24T00:58:23.132Z,99670.44
2018-12-24T01:01:19.677Z,99663.93
2018-12-24T01:04:16.114Z,99657.56
2018-12-24T01:07:11.928Z,99664.75
2018-12-24T01:10:08.421Z,99668.63
2018-12-24T01:13:04.761Z,99671.59
2018-12-24T01:16:01.217Z,99658.20
2018-12-24T01:18:57.831Z,99653.38
2018-12-24T01:21:54.611Z,99644.41
2018-12-24T01:24:52.407Z,99645.36
2018-12-24T01:27:49.244Z,99646.91
2018-12-24T01:30:45.854Z,99648.40
2018-12-24T01:33:42.201Z,99646.67
2018-12-24T01:36:38.184Z,99639.71
2018-12-24T01:39:34.612Z,99654.39
2018-12-24T01:42:33.519Z,99655.52
2018-12-24T01:45:29.400Z,99662.21
2018-12-24T01:48:26.022Z,99657.98
2018-12-24T01:51:22.541Z,99659.55
2018-12-24T01:54:19.014Z,99665.33
2018-12-24T01:57:15.125Z,99662.52
2018-12-24T02:00:11.841Z,99666.28
2018-12-24T02:03:08.428Z,99664.84
2018-12-24T02:06:06.645Z,99661.95
2018-12-24T02:09:04.247Z,99657.98
2018-12-24T02:12:03.415Z,99656.42
2018-12-24T02:14:59.946Z,99665.75
2018-12-24T02:17:58.289Z,99666.08
2018-12-24T02:20:54.828Z,99663.35
2018-12-24T02:23:51.678Z,99664.86
2018-12-24T02:26:48.420Z,99667.45
2018-12-24T02:29:44.591Z,99670.58
2018-12-24T02:32:40.340Z,99671.02
2018-12-24T02:35:36.779Z,99672.27
2018-12-24T02:38:33.484Z,99674.60
2018-12-24T02:41:30.298Z,99674.55
2018-12-24T02:44:25.918Z,99670.36
2018-12-24T02:47:22.477Z,99678.88
2018-12-24T02:50:18.936Z,99671.73
2018-12-24T02:53:14.837Z,99670.34
2018-12-24T02:56:11.503Z,99671.72
2018-12-24T02:59:08.244Z,99684.91
2018-12-24T03:02:04.045Z,99686.64
2018-12-24T03:05:00.696Z,99691.16
2018-12-24T03:07:56.614Z,99699.88
2018-12-24T03:10:53.176Z,99710.63
2018-12-24T03:13:50.008Z,99714.54
2018-12-24T03:16:46.626Z,99705.23
2018-12-24T03:19:42.470Z,99714.13
2018-12-24T03:22:39.140Z,99716.77
2018-12-24T03:25:38.013Z,99714.02
2018-12-24T03:28:34.751Z,99721.16
2018-12-24T03:31:31.483Z,99721.33
2018-12-24T03:34:27.965Z,99720.47
2018-12-24T03:37:23.816Z,99733.19
2018-12-24T03:40:24.368Z,99730.58
2018-12-24T03:43:20.952Z,99726.20
2018-12-24T03:46:17.604Z,99724.00
2018-12-24T03:49:14.473Z,99722.45
2018-12-24T03:52:09.989Z,99726.06
2018-12-24T03:55:06.252Z,99729.56
2018-12-24T03:58:02.840Z,99743.67
2018-12-24T04:00:59.456Z,99749.31
2018-12-24T04:03:55.991Z,99751.62
2018-12-24T04:06:53.046Z,99753.25
2018-12-24T04:09:49.778Z,99759.20
2018-12-24T04:12:46.557Z,99768.56
2018-12-24T04:15:42.225Z,99773.34
2018-12-24T04:18:38.432Z,99777.64
2018-12-24T04:21:34.333Z,99782.81
2018-12-24T04:24:32.642Z,99781.70
2018-12-24T04:27:29.336Z,99786.06
2018-12-24T04:30:25.902Z,99803.28
2018-12-24T04:33:22.543Z,99819.45
2018-12-24T04:36:18.124Z,99829.30
2018-12-24T04:39:18.822Z,99837.99
2018-12-24T04:42:14.337Z,99853.27
2018-12-24T04:45:12.679Z,99858.84
2018-12-24T04:48:09.220Z,99867.09
2018-12-24T04:51:05.083Z,99872.05
2018-12-24T04:54:00.759Z,99884.52
2018-12-24T04:56:57.395Z,99897.02
2018-12-24T04:59:55.873Z,99911.06
2018-12-24T05:02:52.153Z,99924.37
2018-12-24T05:05:47.707Z,99933.88
2018-12-24T05:08:44.242Z,99951.93
2018-12-24T05:11:41.090Z,99969.19
2018-12-24T05:14:37.849Z,99985.90
2018-12-24T05:17:33.372Z,99999.42
2018-12-24T05:20:28.883Z,100009.10
2018-12-24T05:23:25.298Z,100029.64
2018-12-24T05:26:21.189Z,100042.78
2018-12-24T05:29:17.997Z,100062.89
2018-12-24T05:32:13.714Z,100071.86
2018-12-24T05:35:10.504Z,100086.20
2018-12-24T05:38:06.180Z,100103.31
2018-12-24T05:41:01.666Z,100116.83
2018-12-24T05:43:57.897Z,100131.02
2018-12-24T05:46:54.026Z,100141.70
2018-12-24T05:49:50.158Z,100156.23
2018-12-24T05:52:46.327Z,100173.43
2018-12-24T05:55:42.845Z,100183.97
2018-12-24T05:58:39.785Z,100204.05
2018-12-24T06:01:36.416Z,100218.60
2018-12-24T06:04:33.055Z,100235.31
2018-12-24T06:07:29.882Z,100245.34
2018-12-24T06:10:26.467Z,100259.27
2018-12-24T06:13:22.161Z,100278.45
2018-12-24T06:16:19.670Z,100290.47
2018-12-24T06:19:16.198Z,100294.94
2018-12-24T06:22:17.288Z,100314.61
2018-12-24T06:25:13.631Z,100324.98
2018-12-24T06:28:10.446Z,100334.41
2018-12-24T06:31:07.093Z,100344.59
2018-12-24T06:34:03.910Z,100362.01
2018-12-24T06:37:00.480Z,100373.50
2018-12-24T06:39:56.956Z,100383.46
2018-12-24T06:42:53.845Z,100395.67
2018-12-24T06:45:49.340Z,100407.78
2018-12-24T06:48:45.762Z,100411.22
2018-12-24T06:51:42.173Z,100423.13
2018-12-24T06:54:39.160Z,100432.34
2018-12-24T06:57:34.825Z,100445.25
2018-12-24T07:00:30.631Z,100449.50
2018-12-24T07:03:26.318Z,100458.09
2018-12-24T07:06:22.311Z,100468.91
2018-12-24T07:09:18.943Z,100487.44
2018-12-24T07:12:15.354Z,100487.77
2018-12-24T07:15:11.859Z,100495.69
2018-12-24T07:18:07.666Z,100502.75
2018-12-24T07:21:04.161Z,100509.09
2018-12-24T07:24:01.641Z,100521.35
2018-12-24T07:26:59.044Z,100522.84
2018-12-24T07:30:04.168Z,100538.50
2018-12-24T07:33:00.771Z,100535.73
2018-12-24T07:35:57.173Z,100543.26
2018-12-24T07:38:53.814Z,100556.39
2018-12-24T07:41:50.653Z,100563.43
2018-12-24T07:44:46.388Z,100566.55
2018-12-24T07:47:43.738Z,100578.61
2018-12-24T07:50:39.865Z,100597.86
2018-12-24T07:53:37.069Z,100600.11
2018-12-24T07:56:33.712Z,100613.36
2018-12-24T07:59:33.896Z,100622.12
2018-12-24T08:02:32.220Z,100632.59
2018-12-24T08:05:29.746Z,100633.55
2018-12-24T08:08:28.966Z,100644.27
2018-12-24T08:11:25.451Z,100653.15
2018-12-24T08:14:33.050Z,100665.83
2018-12-24T08:17:24.789Z,100677.06
2018-12-24T08:20:20.700Z,100684.13
2018-12-24T08:23:16.626Z,100699.77
2018-12-24T08:26:15.042Z,100709.70
2018-12-24T08:29:10.864Z,100722.88
2018-12-24T08:32:11.499Z,100724.80
2018-12-24T08:35:15.777Z,100732.42
2018-12-24T08:38:12.228Z,100745.84
2018-12-24T08:41:09.282Z,100750.48
2018-12-24T08:44:05.978Z,100755.14
2018-12-24T08:47:03.111Z,100761.24
2018-12-24T08:50:00.331Z,100764.89
2018-12-24T08:52:58.174Z,100776.98
2018-12-24T08:55:54.407Z,100783.23
2018-12-24T08:58:51.406Z,100788.51
2018-12-24T09:01:47.882Z,100788.95
2018-12-24T09:04:44.574Z,100796.17
2018-12-24T09:07:43.794Z,100808.36
2018-12-24T09:10:39.954Z,100812.41
2018-12-24T09:13:35.557Z,100816.20
2018-12-24T09:16:32.604Z,100818.82
2018-12-24T09:19:31.760Z,100823.87
2018-12-24T09:22:37.159Z,100830.77
2018-12-24T09:25:34.355Z,100830.27
2018-12-24T09:28:31.376Z,100837.23
2018-12-24T09:31:29.714Z,100849.14
2018-12-24T09:34:30.498Z,100847.40
2018-12-24T09:37:27.160Z,100857.59
2018-12-24T09:40:23.028Z,100856.96
2018-12-24T09:43:18.613Z,100859.69
2018-12-24T09:46:16.163Z,100870.81
2018-12-24T09:49:21.889Z,100873.25
2018-12-24T09:52:20.402Z,100877.23
2018-12-24T09:55:20.376Z,100875.44
2018-12-24T09:58:21.563Z,100882.70
2018-12-24T10:01:23.307Z,100886.31
2018-12-24T10:04:54.839Z,100888.55
2018-12-24T10:07:50.968Z,100899.13
2018-12-24T10:10:46.652Z,100897.53
2018-12-24T10:13:42.233Z,100908.05
2018-12-24T10:16:38.925Z,100902.19
2018-12-24T10:19:35.285Z,100915.52
2018-12-24T10:22:32.276Z,100920.69
2018-12-24T10:25:29.671Z,100920.11
2018-12-24T10:28:25.527Z,100928.66
2018-12-24T10:31:22.223Z,100930.49
2018-12-24T10:34:18.948Z,100924.98
2018-12-24T10:37:15.759Z,100940.94
2018-12-24T10:40:16.063Z,100940.62
2018-12-24T10:43:14.823Z,100929.49
2018-12-24T10:46:10.726Z,100930.46
2018-12-24T10:49:06.453Z,100928.10
2018-12-24T10:52:02.919Z,100939.98
2018-12-24T10:54:59.834Z,100938.84
2018-12-24T10:57:56.206Z,100940.81
2018-12-24T11:00:52.075Z,100947.38
2018-12-24T11:03:50.453Z,100939.71
2018-12-24T11:06:46.437Z,100939.92
2018-12-24T11:09:43.020Z,100947.62
2018-12-24T11:12:40.405Z,100946.00
2018-12-24T11:15:36.683Z,100949.77
2018-12-24T11:18:32.558Z,100955.91
2018-12-24T11:21:29.131Z,100955.36
2018-12-24T11:24:25.591Z,100951.72
2018-12-24T11:27:21.971Z,100949.88
2018-12-24T11:30:17.622Z,100954.05
2018-12-24T11:33:14.438Z,100962.42
2018-12-24T11:36:10.631Z,100962.80
2018-12-24T11:39:07.822Z,100970.10
2018-12-24T11:42:05.068Z,100965.25
2018-12-24T11:45:02.287Z,100975.23
2018-12-24T11:47:59.569Z,100972.14
2018-12-24T11:50:58.404Z,100975.03
2018-12-24T11:53:54.325Z,100983.85
2018-12-24T11:56:51.145Z,100994.24
2018-12-24T11:59:46.995Z,100990.61
2018-12-24T12:02:43.492Z,100990.54
2018-12-24T12:05:41.428Z,100995.84
2018-12-24T12:08:37.832Z,100996.75
2018-12-24T12:11:34.384Z,101008.23
2018-12-24T12:14:31.019Z,101016.22
2018-12-24T12:17:27.443Z,101026.92
2018-12-24T12:20:24.563Z,101028.02
2018-12-24T12:23:32.701Z,101034.70
2018-12-24T12:26:30.273Z,101040.19
2018-12-24T12:29:26.499Z,101052.44
2018-12-24T12:32:23.310Z,101064.63
2018-12-24T12:35:19.427Z,101078.81
2018-12-24T12:38:15.599Z,101087.67
2018-12-24T12:41:10.984Z,101092.24
2018-12-24T12:44:07.874Z,101101.37
2018-12-24T12:47:03.391Z,101111.97
2018-12-24T12:50:01.228Z,101120.66
2018-12-24T12:52:56.978Z,101130.92
2018-12-24T12:55:52.119Z,101129.16
2018-12-24T12:58:48.247Z,101131.65
2018-12-24T13:01:44.166Z,101129.50
2018-12-24T13:04:41.064Z,101135.67
2018-12-24T13:07:36.139Z,101158.97
2018-12-24T13:10:34.470Z,101169.34
2018-12-24T13:13:36.897Z,101170.16
2018-12-24T13:16:33.830Z,101180.69
2018-12-24T13:19:29.504Z,101180.44
2018-12-24T13:22:25.984Z,101190.80
2018-12-24T13:25:23.656Z,101195.60
2018-12-24T13:28:21.749Z,101196.47
2018-12-24T13:31:20.251Z,101198.14
2018-12-24T13:34:16.002Z,101207.81
2018-12-24T13:37:12.373Z,101215.14
2018-12-24T13:40:08.325Z,101219.02
2018-12-24T13:43:04.887Z,101228.00
2018-12-24T13:46:08.039Z,101237.13
2018-12-24T13:48:59.841Z,101230.30
2018-12-24T13:51:55.882Z,101236.51
2018-12-24T13:54:51.525Z,101237.13
2018-12-24T13:57:47.044Z,101238.44
2018-12-24T14:00:44.408Z,101237.34
2018-12-24T14:03:40.529Z,101248.91
2018-12-24T14:06:40.117Z,101252.73
2018-12-24T14:09:36.200Z,101267.03
2018-12-24T14:12:31.296Z,101276.23
2018-12-24T14:15:26.863Z,101282.23
2018-12-24T14:18:22.221Z,101282.03
2018-12-24T14:21:18.309Z,101283.87
2018-12-24T14:24:14.410Z,101297.98
2018-12-24T14:27:09.641Z,101302.95
2018-12-24T14:30:17.342Z,101302.29
2018-12-24T14:33:13.394Z,101311.47
2018-12-24T14:36:08.298Z,101320.81
2018-12-24T14:39:06.643Z,101330.39
2018-12-24T14:42:02.445Z,101333.48
2018-12-24T14:44:59.064Z,101342.30
2018-12-24T15:07:09.903Z,101383.77
2018-12-24T15:10:06.506Z,101394.22
2018-12-24T15:13:02.606Z,101393.47
2018-12-24T15:15:59.193Z,101391.50
2018-12-24T15:18:55.247Z,101409.09
2018-12-24T15:21:51.246Z,101411.22
2018-12-24T15:24:46.646Z,101419.24
2018-12-24T15:27:42.152Z,101429.41
2018-12-24T15:30:37.438Z,101427.95
2018-12-24T15:33:37.994Z,101436.11
2018-12-24T15:36:33.921Z,101431.00
2018-12-24T15:39:30.255Z,101428.84
2018-12-24T15:42:26.996Z,101436.97
2018-12-24T15:45:23.841Z,101435.15
2018-12-24T15:48:19.826Z,101441.09
2018-12-24T15:51:16.201Z,101454.50
2018-12-24T15:54:13.231Z,101457.33
2018-12-24T15:57:11.406Z,101463.19
2018-12-24T16:00:09.260Z,101462.82
2018-12-24T16:03:05.067Z,101467.13
2018-12-24T16:06:01.629Z,101475.62
2018-12-24T16:08:57.793Z,101480.27
2018-12-24T16:11:53.920Z,101484.23
2018-12-24T16:14:49.732Z,101486.30
2018-12-24T16:17:46.374Z,101495.06
2018-12-24T16:20:43.189Z,101500.24
2018-12-24T16:23:39.909Z,101505.03
2018-12-24T16:26:38.635Z,101505.11
2018-12-24T16:29:33.689Z,101504.28
2018-12-24T16:32:29.870Z,101488.66
2018-12-24T16:35:29.554Z,101496.00
2018-12-24T16:38:26.150Z,101491.63
2018-12-24T16:41:22.531Z,101491.80
2018-12-24T16:44:18.063Z,101493.64
2018-12-24T16:47:14.746Z,101483.89
2018-12-24T16:50:10.798Z,101486.54
2018-12-24T16:53:05.775Z,101487.27
2018-12-24T16:56:01.749Z,101487.95
2018-12-24T16:58:57.792Z,101480.41
2018-12-24T17:01:53.074Z,101490.51
2018-12-24T17:04:49.590Z,101486.58
2018-12-24T17:07:44.457Z,101489.50
2018-12-24T17:10:40.502Z,101487.57
2018-12-24T17:13:36.533Z,101495.38
2018-12-24T17:16:31.947Z,101495.91
2018-12-24T17:19:27.584Z,101490.41
2018-12-24T17:22:23.042Z,101492.41
2018-12-24T17:25:18.516Z,101495.09
2018-12-24T17:28:17.728Z,101495.55
2018-12-24T17:31:13.889Z,101491.08
2018-12-24T17:34:09.169Z,101484.82
2018-12-24T17:37:06.404Z,101487.02
2018-12-24T17:40:02.662Z,101493.28
2018-12-24T17:42:58.607Z,101489.86
2018-12-24T17:45:54.119Z,101483.30
2018-12-24T17:48:49.999Z,101475.32
2018-12-24T17:51:48.936Z,101477.86
2018-12-24T17:54:45.336Z,101476.02
2018-12-24T17:57:51.013Z,101488.59
2018-12-24T18:00:48.102Z,101498.59
2018-12-24T18:03:44.783Z,101509.97
2018-12-24T18:06:49.156Z,101514.64
2018-12-24T18:09:46.359Z,101523.19
2018-12-24T18:12:42.966Z,101523.84
2018-12-24T18:15:37.836Z,101531.29
2018-12-24T18:18:33.447Z,101537.58
2018-12-24T18:21:30.571Z,101539.27
2018-12-24T18:24:25.967Z,101541.98
2018-12-24T18:27:21.901Z,101545.37
2018-12-24T18:30:21.697Z,101535.92
2018-12-24T18:33:17.428Z,101535.81
2018-12-24T18:36:12.769Z,101538.02
2018-12-24T18:39:09.097Z,101534.17
2018-12-24T18:42:06.305Z,101534.04
2018-12-24T18:45:01.585Z,101528.09
2018-12-24T18:48:29.461Z,101519.80
2018-12-24T18:51:35.535Z,101524.02
2018-12-24T18:54:30.435Z,101526.47
2018-12-24T18:57:37.270Z,101532.41
2018-12-24T19:00:34.146Z,101531.03
2018-12-24T19:03:30.274Z,101511.15
2018-12-24T19:06:26.067Z,101512.25
2018-12-24T19:09:29.488Z,101496.73
2018-12-24T19:12:25.717Z,101494.70
2018-12-24T19:15:20.972Z,101500.18
2018-12-24T19:18:17.261Z,101516.46
2018-12-24T19:21:13.634Z,101522.09
2018-12-24T19:24:08.574Z,101518.56
2018-12-24T19:27:03.420Z,101514.75
2018-12-24T19:29:58.515Z,101513.14
2018-12-24T19:32:55.251Z,101511.39
2018-12-24T19:35:50.751Z,101506.67
2018-12-24T19:38:46.458Z,101503.89
2018-12-24T19:41:43.077Z,101508.92
2018-12-24T19:44:40.336Z,101503.31
2018-12-24T19:47:35.317Z,101499.23
2018-12-24T19:50:34.089Z,101505.61
2018-12-24T19:53:29.872Z,101506.70
2018-12-24T19:56:25.646Z,101506.48
2018-12-24T19:59:21.150Z,101510.77
2018-12-24T20:02:18.570Z,101514.34
2018-12-24T20:05:14.864Z,101523.88
2018-12-24T20:08:12.921Z,101521.44
2018-12-24T20:11:08.353Z,101519.03
2018-12-24T20:14:03.453Z,101517.91
2018-12-24T20:16:59.603Z,101520.05
2018-12-24T20:19:55.043Z,101515.55
2018-12-24T20:22:51.193Z,101519.92
2018-12-24T20:25:46.859Z,101520.30
2018-12-24T20:28:42.278Z,101526.13
2018-12-24T20:31:38.611Z,101523.09
2018-12-24T20:34:34.024Z,101522.88
2018-12-24T20:37:31.639Z,101529.58
2018-12-24T20:40:27.800Z,101526.43
2018-12-24T20:43:23.984Z,101527.53
2018-12-24T20:46:20.510Z,101523.16
2018-12-24T20:49:16.670Z,101525.34
2018-12-24T20:52:11.495Z,101526.44
2018-12-24T20:55:08.099Z,101529.34
2018-12-24T20:58:04.044Z,101532.00
2018-12-24T21:01:00.641Z,101530.74
2018-12-24T21:03:56.774Z,101538.45
2018-12-24T21:06:52.718Z,101541.32
2018-12-24T21:09:48.811Z,101548.91
2018-12-24T21:12:44.569Z,101547.77
2018-12-24T21:15:39.641Z,101534.13
2018-12-24T21:18:35.907Z,101537.19
2018-12-24T21:21:31.446Z,101534.72
2018-12-24T21:24:27.972Z,101546.24
2018-12-24T21:27:24.010Z,101543.22
2018-12-24T21:30:32.574Z,101556.80
2018-12-24T21:33:28.332Z,101568.03
2018-12-24T21:36:24.721Z,101569.05
2018-12-24T21:39:23.724Z,101570.44
2018-12-24T21:42:20.240Z,101566.34
2018-12-24T21:45:16.470Z,101557.56
2018-12-24T21:48:12.878Z,101540.72
2018-12-24T21:51:10.409Z,101538.45
2018-12-24T21:54:06.955Z,101520.83
2018-12-24T21:57:04.417Z,101519.47
2018-12-24T22:00:00.012Z,101521.36
2018-12-24T22:02:58.416Z,101524.47
2018-12-24T22:05:55.159Z,101533.41
2018-12-24T22:08:50.452Z,101527.38
2018-12-24T22:11:45.760Z,101537.87
2018-12-24T22:14:42.496Z,101528.64
2018-12-24T22:17:38.805Z,101520.16
2018-12-24T22:20:34.579Z,101515.89
2018-12-24T22:23:31.083Z,101510.34
2018-12-24T22:26:27.888Z,101510.61
2018-12-24T22:29:23.181Z,101506.65
2018-12-24T22:32:19.714Z,101509.42
2018-12-24T22:35:15.604Z,101495.78
2018-12-24T22:38:11.468Z,101506.22
2018-12-24T22:41:09.439Z,101503.10
2018-12-24T22:44:05.220Z,101502.28
2018-12-24T22:47:03.326Z,101487.32
2018-12-24T22:49:58.555Z,101487.11
2018-12-24T22:52:54.741Z,101480.48
2018-12-24T22:55:52.446Z,101482.98
2018-12-24T22:58:49.296Z,101490.02
2018-12-24T23:01:45.482Z,101478.05
2018-12-24T23:04:41.756Z,101472.45
2018-12-24T23:07:38.992Z,101471.59
2018-12-24T23:10:35.505Z,101468.44
2018-12-24T23:13:33.199Z,101476.39
2018-12-24T23:16:28.306Z,101484.22
2018-12-24T23:19:24.644Z,101481.31
2018-12-24T23:22:20.567Z,101488.91
2018-12-24T23:25:16.410Z,101494.08
2018-12-24T23:28:12.344Z,101501.14
2018-12-24T23:31:08.082Z,101501.62
2018-12-24T23:34:04.154Z,101502.70
2018-12-24T23:37:00.853Z,101506.92
2018-12-24T23:39:55.871Z,101492.20
2018-12-24T23:42:52.370Z,101509.13
2018-12-24T23:45:51.900Z,101502.25
2018-12-24T23:48:48.617Z,101492.08
2018-12-24T23:51:45.181Z,101498.47
2018-12-24T23:54:41.211Z,101499.77
2018-12-24T23:57:37.256Z,101492.33
